Flight Track Log - Related Links

Times and Time Zones

All times are in EDT time to prevent confusion due to time zone crossing. See the ASQ6115 flight status page for this flight to view local times or setup timezone preferences in your user account.

Time Position Orientation Groundspeed Altitude Reporting Facility
EDT Latitude Longitude Course Direction KTS MPH feet Rate Location/Type
Fri 03:00:20 PM 29.9614 -95.3411 190° South 160 184 700  Level Houston Center
Fri 03:01:22 PM 29.9275 -95.2922 129° Southeast 238 274 2,200 1,556 Climbing Houston Center
Fri 03:02:08 PM 29.8989 -95.2481 127° Southeast 239 275 3,500 2,066 Climbing Houston Center
Fri 03:02:23 PM 29.8839 -95.2278 130° Southeast 259 298 4,300 3,097 Climbing Houston Center
Fri 03:03:10 PM 29.8544 -95.1836 128° Southeast 250 288 6,700 2,257 Climbing Houston Center
Fri 03:04:00 PM 29.5949 -95.4104 191° South  Level FlightAware Approximate
Fri 03:04:12 PM 29.7875 -95.1719 171° South 262 302 8,400  Level Houston Center
Fri 03:05:00 PM 29.4979 -95.4304 190° South  Level FlightAware Approximate
Fri 03:05:14 PM 29.7119 -95.1803 185° South 271 312 10,400  Level Houston Center
Fri 03:06:16 PM 29.6153 -95.1928 186° South 300 345 11,600 968 Climbing Houston Center
Fri 03:07:18 PM 29.5194 -95.2031 185° South 339 390 12,400 1,016 Climbing Houston Center
Fri 03:08:20 PM 29.4267 -95.2439 201° Southwest 361 415 13,700 1,296 Climbing Houston Center
Fri 03:09:23 PM 29.3392 -95.2994 209° Southwest 361 415 15,100 1,488 Climbing Houston Center
Fri 03:10:25 PM 29.2450 -95.3908 220° Southwest 366 421 16,800 1,452 Climbing Houston Center
Fri 03:11:27 PM 29.1678 -95.4644 220° Southwest 363 418 18,100 1,306 Climbing Houston Center
Fri 03:12:29 PM 29.0906 -95.5389 220° Southwest 362 417 19,500 1,306 Climbing Houston Center
Fri 03:13:31 PM 29.0131 -95.6128 220° Southwest 363 418 20,800 1,016 Climbing Houston Center
Fri 03:14:33 PM 28.9344 -95.6897 221° Southwest 369 425 21,600 581 Climbing Houston Center
Fri 03:15:35 PM 28.8511 -95.7686 220° Southwest 384 442 22,000 194 Climbing Houston Center
Fri 03:16:37 PM 28.7447 -95.8700 220° Southwest 412 474 22,000  Level Houston Center
Fri 03:17:40 PM 28.6539 -95.9558 220° Southwest 423 487 22,000  Level Houston Center
Fri 03:18:42 PM 28.5561 -96.0489 220° Southwest 433 498 22,000  Level Houston Center
Fri 03:19:44 PM 28.4628 -96.1372 220° Southwest 435 501 22,000  Level Houston Center
Fri 03:20:46 PM 28.3692 -96.2247 219° Southwest 436 502 22,000  Level Houston Center
Fri 03:21:48 PM 28.2778 -96.3131 220° Southwest 432 497 22,000  Level Houston Center
Fri 03:22:50 PM 28.1858 -96.3975 219° Southwest 428 493 22,000  Level Houston Center
Fri 03:23:52 PM 28.0753 -96.5000 219° Southwest 427 491 22,000  Level Houston Center
Fri 03:24:54 PM 27.9844 -96.5867 220° Southwest 426 490 22,000  Level Houston Center
Fri 03:25:57 PM 27.8933 -96.6714 219° Southwest 425 489 22,000  Level Houston Center
Fri 03:26:59 PM 27.8017 -96.7567 219° Southwest 425 489 22,000  Level Houston Center
Fri 03:28:01 PM 27.7100 -96.8419 219° Southwest 427 491 22,000  Level Houston Center
Fri 03:29:03 PM 27.6183 -96.9267 219° Southwest 426 490 22,000  Level Houston Center
Fri 03:30:05 PM 27.5075 -97.0294 219° Southwest 429 494 22,000  Level Houston Center
Fri 03:31:07 PM 27.4178 -97.1114 219° Southwest 427 491 22,000  Level Houston Center
Fri 03:32:09 PM 27.3272 -97.1947 219° Southwest 423 487 22,000  Level Houston Center
Fri 03:33:11 PM 27.2372 -97.2769 219° Southwest 419 482 22,000  Level Houston Center
Fri 03:33:54 PM 27.1650 -97.3456 220° Southwest 414 476 22,000  Level Houston Center
Fri 03:34:14 PM 27.1481 -97.3600 217° Southwest 417 480 22,000 -393 Level Houston Center
Fri 03:34:55 PM 27.0711 -97.4289 219° Southwest 413 475 21,600 -968 Descending Houston Center
Fri 03:35:16 PM 27.0442 -97.4519 217° Southwest 414 476 21,000 -2,200 Descending Houston Center
Fri 03:35:55 PM 26.9869 -97.5061 220° Southwest 370 426 19,400 -2,323 Descending Houston Center
Fri 03:36:18 PM 26.9631 -97.5297 221° Southwest 389 448 18,600 -2,459 Descending Houston Center
Fri 03:36:56 PM 26.9153 -97.5817 224° Southwest 354 407 16,900 -2,613 Descending Houston Center
Fri 03:37:20 PM 26.8886 -97.6100 223° Southwest 351 404 15,900 -2,459 Descending Houston Center
Fri 03:37:57 PM 26.8458 -97.6592 226° Southwest 343 395 14,400 -2,419 Descending Houston Center
Fri 03:38:22 PM 26.8203 -97.6858 223° Southwest 345 397 13,400 -2,459 Descending Houston Center
Fri 03:38:58 PM 26.7761 -97.7342 224° Southwest 347 399 11,900 -1,935 Descending Houston Center
Fri 03:39:24 PM 26.7456 -97.7689 225° Southwest 340 391 11,400 -787 Descending Houston Center
Fri 03:39:59 PM 26.7064 -97.8114 224° Southwest 353 406 11,100 -484 Descending Houston Center
Fri 03:40:26 PM 26.6767 -97.8461 226° Southwest 349 402 10,900 -500 Descending Houston Center
Fri 03:40:59 PM 26.6389 -97.8883 225° Southwest 351 404 10,600 -571 Descending Houston Center
Fri 03:41:29 PM 26.6036 -97.9267 224° Southwest 345 397 10,300 -590 Descending Houston Center
Fri 03:42:00 PM 26.5692 -97.9631 223° Southwest 323 372 10,000 -774 Descending Houston Center
Fri 03:42:31 PM 26.5469 -97.9897 227° Southwest 291 335 9,500 -1,475 Descending Houston Center
Fri 03:43:01 PM 26.5181 -98.0189 222° Southwest 250 288 8,500 -1,935 Descending Houston Center
Fri 03:43:33 PM 26.4914 -98.0497 226° Southwest 262 302 7,500 -1,869 Descending Houston Center
Fri 03:44:02 PM 26.4672 -98.0744 222° Southwest 252 290 6,600 -1,839 Descending Houston Center
Fri 03:44:35 PM 26.4406 -98.1058 227° Southwest 258 297 5,600 -1,770 Descending Houston Center
Fri 03:45:03 PM 26.4167 -98.1325 225° Southwest 259 298 4,800 -1,452 Descending Houston Center
Fri 03:45:37 PM 26.3856 -98.1656 224° Southwest 256 295 4,100 -787 Descending Houston Center
Fri 03:46:04 PM 26.3656 -98.1858 222° Southwest 253 291 4,000 -387 Descending Houston Center
Fri 03:46:39 PM 26.3378 -98.2183 226° Southwest 245 282 3,700 -885 Descending Houston Center
Fri 03:47:05 PM 26.3147 -98.2439 225° Southwest 243 280 3,100 -1,355 Descending Houston Center
Fri 03:47:41 PM 26.2894 -98.2711 224° Southwest 244 281 2,300 -1,333 Descending Houston Center

Login

Don't have an account? Register now (free) for customized features, flight alerts, and more!